createdAt,value
2022-10-22T00:01:10.648Z,22.10
2022-10-22T00:03:40.634Z,20.60
2022-10-22T00:06:08.958Z,21.60
2022-10-22T00:08:37.042Z,14.40
2022-10-22T00:11:14.206Z,13.70
2022-10-22T00:13:43.280Z,19.10
2022-10-22T00:16:11.887Z,12.70
2022-10-22T00:18:40.869Z,11.80
2022-10-22T00:21:08.990Z,13.30
2022-10-22T00:23:40.026Z,21.40
2022-10-22T00:26:08.147Z,22.60
2022-10-22T00:28:36.786Z,19.90
2022-10-22T00:31:05.737Z,16.80
2022-10-22T00:33:33.903Z,12.20
2022-10-22T00:36:01.829Z,16.10
2022-10-22T00:38:29.851Z,18.40
2022-10-22T00:40:57.975Z,20.70
2022-10-22T00:43:27.414Z,21.90
2022-10-22T00:45:55.311Z,20.10
2022-10-22T00:48:29.779Z,12.20
2022-10-22T00:51:01.421Z,14.10
2022-10-22T00:53:37.511Z,11.00
2022-10-22T00:56:06.345Z,19.50
2022-10-22T00:58:37.659Z,18.10
2022-10-22T01:01:09.640Z,13.00
2022-10-22T01:03:37.818Z,18.50
2022-10-22T01:06:06.528Z,12.60
2022-10-22T01:09:20.588Z,10.60
2022-10-22T01:12:10.657Z,14.50
2022-10-22T01:15:10.991Z,10.20
2022-10-22T01:17:43.533Z,16.10
2022-10-22T01:22:46.471Z,13.70
2022-10-22T01:25:30.706Z,15.50
2022-10-22T01:28:21.308Z,13.80
2022-10-22T01:30:53.451Z,10.60
2022-10-22T01:33:25.117Z,9.00
2022-10-22T01:35:53.912Z,8.90
2022-10-22T01:38:25.054Z,10.40
2022-10-22T01:40:54.653Z,10.90
2022-10-22T01:43:22.789Z,11.10
2022-10-22T01:45:54.036Z,17.20
2022-10-22T01:48:27.772Z,14.60
2022-10-22T01:51:14.492Z,16.90
2022-10-22T01:53:56.082Z,13.90
2022-10-22T01:56:30.108Z,15.80
2022-10-22T01:59:22.541Z,16.70
2022-10-22T02:02:02.009Z,17.90
2022-10-22T02:04:45.046Z,11.60
2022-10-22T02:09:44.736Z,15.50
2022-10-22T02:12:14.092Z,18.20
2022-10-22T02:14:44.235Z,12.30
2022-10-22T02:17:18.359Z,12.20
2022-10-22T02:20:08.485Z,18.90
2022-10-22T02:22:37.730Z,15.40
2022-10-22T02:25:06.758Z,12.00
2022-10-22T02:27:45.512Z,18.60
2022-10-22T02:30:20.303Z,20.00
2022-10-22T02:33:08.227Z,20.60
2022-10-22T02:35:37.491Z,15.00
2022-10-22T02:38:06.234Z,12.00
2022-10-22T02:40:34.227Z,15.90
2022-10-22T02:43:05.125Z,19.10
2022-10-22T02:45:34.743Z,20.40
2022-10-22T02:48:03.290Z,20.90
2022-10-22T02:50:31.868Z,19.80
2022-10-22T02:53:00.040Z,20.20
2022-10-22T02:55:28.261Z,19.90
2022-10-22T02:57:56.152Z,18.80
2022-10-22T03:00:24.196Z,19.10
2022-10-22T03:02:52.383Z,19.40
2022-10-22T03:05:20.496Z,20.30
2022-10-22T03:07:48.336Z,14.90
2022-10-22T03:10:16.402Z,12.70
2022-10-22T03:12:44.470Z,21.10
2022-10-22T03:15:12.425Z,20.40
2022-10-22T03:17:40.773Z,19.90
2022-10-22T03:20:09.281Z,20.00
2022-10-22T03:22:41.037Z,18.30
2022-10-22T03:25:13.936Z,15.20
2022-10-22T03:27:42.873Z,11.50
2022-10-22T03:30:11.957Z,10.70
2022-10-22T03:32:40.171Z,32.80
2022-10-22T03:35:08.469Z,13.60
2022-10-22T03:37:37.956Z,12.30
2022-10-22T03:40:08.246Z,20.10
2022-10-22T03:42:36.112Z,18.90
2022-10-22T03:45:05.363Z,20.00
2022-10-22T03:47:33.366Z,20.10
2022-10-22T03:50:01.560Z,23.10
2022-10-22T03:52:35.213Z,13.70
2022-10-22T03:55:04.131Z,10.20
2022-10-22T03:57:32.994Z,18.40
2022-10-22T04:00:00.982Z,18.60
2022-10-22T04:02:28.999Z,17.30
2022-10-22T04:04:56.929Z,17.10
2022-10-22T04:07:24.975Z,12.40
2022-10-22T04:09:53.025Z,9.70
2022-10-22T04:12:20.904Z,18.00
2022-10-22T04:14:48.836Z,18.60
2022-10-22T04:17:17.142Z,12.90
2022-10-22T04:19:45.217Z,18.50
2022-10-22T04:22:13.071Z,13.00
2022-10-22T04:24:41.035Z,18.60
2022-10-22T04:27:09.131Z,17.90
2022-10-22T04:29:37.249Z,18.70
2022-10-22T04:32:05.435Z,27.30
2022-10-22T04:34:33.493Z,19.10
2022-10-22T04:37:01.577Z,20.90
2022-10-22T04:39:29.383Z,14.00
2022-10-22T04:41:57.506Z,13.50
2022-10-22T04:44:25.542Z,19.40
2022-10-22T04:46:53.703Z,20.80
2022-10-22T04:49:21.726Z,14.70
2022-10-22T04:51:49.667Z,27.30
2022-10-22T04:54:17.667Z,24.80
2022-10-22T04:56:45.681Z,21.60
2022-10-22T04:59:13.917Z,20.60
2022-10-22T05:01:44.602Z,18.20
2022-10-22T05:04:15.944Z,20.10
2022-10-22T05:06:44.572Z,16.30
2022-10-22T05:09:18.622Z,11.70
2022-10-22T05:11:49.218Z,17.00
2022-10-22T05:14:23.223Z,18.00
2022-10-22T05:16:52.449Z,16.00
2022-10-22T05:19:27.457Z,15.80
2022-10-22T05:21:58.148Z,16.30
2022-10-22T05:24:27.685Z,19.00
2022-10-22T05:26:57.962Z,15.40
2022-10-22T05:29:26.437Z,18.90
2022-10-22T05:31:54.649Z,13.80
2022-10-22T05:34:22.810Z,13.00
2022-10-22T05:36:50.997Z,14.50
2022-10-22T05:39:18.833Z,12.40
2022-10-22T05:41:46.778Z,17.30
2022-10-22T05:44:14.758Z,19.00
2022-10-22T05:46:43.578Z,14.00
2022-10-22T05:49:15.151Z,10.60
2022-10-22T05:51:43.126Z,11.10
2022-10-22T05:54:19.802Z,12.30
2022-10-22T05:56:48.049Z,18.30
2022-10-22T05:59:16.420Z,17.10
2022-10-22T06:01:44.563Z,10.50
2022-10-22T06:04:13.714Z,17.40
2022-10-22T06:06:51.074Z,12.90
2022-10-22T06:09:34.281Z,19.10
2022-10-22T06:12:03.036Z,21.00
2022-10-22T06:14:32.707Z,23.70
2022-10-22T06:17:00.846Z,24.20
2022-10-22T06:19:31.211Z,28.40
2022-10-22T06:21:59.401Z,29.50
2022-10-22T06:24:27.542Z,29.70
2022-10-22T06:26:55.554Z,28.50
2022-10-22T06:29:23.805Z,23.40
2022-10-22T06:31:51.734Z,26.90
2022-10-22T06:34:19.992Z,24.50
2022-10-22T06:36:48.173Z,17.20
2022-10-22T06:39:17.713Z,21.70
2022-10-22T06:41:46.037Z,21.10
2022-10-22T06:44:18.552Z,22.00
2022-10-22T06:46:52.165Z,18.40
2022-10-22T06:49:21.338Z,14.80
2022-10-22T06:51:53.819Z,17.50
2022-10-22T06:54:23.256Z,17.40
2022-10-22T06:56:51.423Z,18.10
2022-10-22T06:59:19.393Z,13.60
2022-10-22T07:01:47.321Z,18.50
2022-10-22T07:04:15.704Z,14.20
2022-10-22T07:06:43.856Z,12.60
2022-10-22T07:09:12.057Z,19.10
2022-10-22T07:11:43.255Z,19.40
2022-10-22T07:14:11.996Z,14.40
2022-10-22T07:16:43.153Z,17.30
2022-10-22T07:19:11.608Z,17.70
2022-10-22T07:21:39.816Z,13.40
2022-10-22T07:24:08.195Z,16.20
2022-10-22T07:26:37.054Z,12.20
2022-10-22T07:29:05.706Z,14.70
2022-10-22T07:31:33.777Z,9.70
2022-10-22T07:34:01.892Z,11.20
2022-10-22T07:36:29.826Z,13.50
2022-10-22T07:38:59.231Z,14.70
2022-10-22T07:41:29.189Z,12.20
2022-10-22T07:43:58.303Z,11.10
2022-10-22T07:46:27.202Z,11.10
2022-10-22T07:48:55.225Z,8.80
2022-10-22T07:51:23.391Z,10.00
2022-10-22T07:53:51.387Z,10.20
2022-10-22T07:56:19.322Z,10.40
2022-10-22T07:58:47.307Z,13.30
2022-10-22T08:01:15.551Z,10.80
2022-10-22T08:03:43.480Z,10.20
2022-10-22T08:06:14.584Z,15.00
2022-10-22T08:08:43.717Z,14.80
2022-10-22T08:11:11.872Z,10.60
2022-10-22T08:13:44.880Z,12.20
2022-10-22T08:16:14.385Z,10.40
2022-10-22T08:18:43.036Z,9.70
2022-10-22T08:21:13.043Z,9.60
2022-10-22T08:23:41.250Z,14.10
2022-10-22T08:26:10.466Z,12.10
2022-10-22T08:28:38.650Z,10.70
2022-10-22T08:31:08.271Z,10.90
2022-10-22T08:33:37.070Z,11.40
2022-10-22T08:36:06.096Z,13.40
2022-10-22T08:38:35.395Z,10.60
2022-10-22T08:41:09.900Z,14.50
2022-10-22T08:44:00.726Z,13.00
2022-10-22T08:46:34.130Z,12.40
2022-10-22T08:49:04.755Z,10.40
2022-10-22T08:51:40.520Z,9.80
2022-10-22T08:54:22.761Z,10.60
2022-10-22T08:57:13.486Z,10.30
2022-10-22T08:59:46.970Z,8.90
2022-10-22T09:02:53.947Z,13.30
2022-10-22T09:05:56.249Z,10.60
2022-10-22T09:08:24.748Z,12.60
2022-10-22T09:10:58.918Z,9.80
2022-10-22T09:13:26.983Z,10.80
2022-10-22T09:16:00.118Z,11.90
2022-10-22T09:18:40.551Z,10.40
2022-10-22T09:21:32.665Z,9.00
2022-10-22T09:24:32.283Z,10.50
2022-10-22T09:27:07.308Z,11.50
2022-10-22T09:29:35.307Z,12.80
2022-10-22T09:32:03.660Z,11.60
2022-10-22T09:34:32.698Z,9.90
2022-10-22T09:37:07.355Z,10.20
2022-10-22T09:39:37.974Z,9.60
2022-10-22T09:42:07.404Z,9.20
2022-10-22T09:44:37.511Z,9.90
2022-10-22T09:47:07.999Z,9.10
2022-10-22T09:49:36.816Z,10.40
2022-10-22T09:52:26.466Z,11.00
2022-10-22T09:54:54.342Z,8.50
2022-10-22T09:57:22.558Z,8.40
2022-10-22T09:59:51.530Z,8.50
2022-10-22T10:02:37.617Z,9.20
2022-10-22T10:05:07.882Z,8.90
2022-10-22T10:07:36.674Z,9.40
2022-10-22T10:10:19.654Z,10.30
2022-10-22T10:13:01.548Z,8.20
2022-10-22T10:15:45.862Z,9.80
2022-10-22T10:18:22.704Z,10.40
2022-10-22T10:21:17.205Z,8.80
2022-10-22T10:24:24.909Z,8.80
2022-10-22T10:27:07.527Z,10.10
2022-10-22T10:32:48.286Z,8.50
2022-10-22T10:35:31.446Z,8.60
2022-10-22T10:38:20.069Z,9.50
2022-10-22T10:41:08.517Z,8.50
2022-10-22T10:43:36.404Z,9.70
2022-10-22T10:46:23.587Z,8.50
2022-10-22T10:49:03.372Z,9.20
2022-10-22T10:51:43.571Z,9.90
2022-10-22T10:54:27.673Z,9.60
2022-10-22T10:57:06.859Z,8.30
2022-10-22T10:59:43.664Z,9.50
2022-10-22T11:02:53.635Z,8.80
2022-10-22T11:05:32.525Z,9.40
2022-10-22T11:08:11.475Z,6.60
2022-10-22T11:10:46.873Z,7.20
2022-10-22T11:13:34.325Z,8.40
2022-10-22T11:16:15.731Z,7.50
2022-10-22T11:19:15.540Z,7.50
2022-10-22T11:21:57.196Z,7.80
2022-10-22T11:24:52.124Z,7.50
2022-10-22T11:27:31.841Z,7.40
2022-10-22T11:30:05.248Z,6.80
2022-10-22T11:32:33.809Z,8.40
2022-10-22T11:35:05.747Z,7.80
2022-10-22T11:37:39.125Z,6.30
2022-10-22T11:40:29.126Z,8.00
2022-10-22T11:42:59.584Z,7.10
2022-10-22T11:45:31.183Z,7.20
2022-10-22T11:48:06.939Z,7.80
2022-10-22T11:50:56.716Z,8.00
2022-10-22T11:53:32.073Z,7.00
2022-10-22T11:56:13.628Z,7.40
2022-10-22T11:58:50.722Z,8.20
2022-10-22T12:01:40.581Z,7.00
2022-10-22T12:04:22.182Z,6.90
2022-10-22T12:07:01.969Z,6.90
2022-10-22T12:09:32.913Z,7.40
2022-10-22T12:12:14.284Z,7.10
2022-10-22T12:17:29.864Z,7.80
2022-10-22T12:20:13.127Z,7.30
2022-10-22T12:22:42.348Z,7.20
2022-10-22T12:25:22.868Z,6.60
2022-10-22T12:27:57.481Z,7.40
2022-10-22T12:30:35.189Z,8.70
2022-10-22T12:33:06.628Z,8.30
2022-10-22T12:35:43.540Z,7.70
2022-10-22T12:38:23.444Z,8.50
2022-10-22T12:40:55.895Z,7.30
2022-10-22T12:43:29.945Z,9.20
2022-10-22T12:45:59.910Z,9.20
2022-10-22T12:48:34.503Z,10.40
2022-10-22T12:51:04.976Z,12.00
2022-10-22T12:53:37.896Z,10.80
2022-10-22T12:56:22.024Z,9.40
2022-10-22T12:59:05.725Z,9.10
2022-10-22T13:01:40.130Z,8.80
2022-10-22T13:04:16.989Z,11.20
2022-10-22T13:06:47.890Z,11.00
2022-10-22T13:09:25.232Z,9.10
2022-10-22T13:12:04.712Z,10.40
2022-10-22T13:14:35.416Z,10.50
2022-10-22T13:17:36.661Z,8.80
2022-10-22T13:20:16.376Z,9.90
2022-10-22T13:22:55.423Z,8.80
2022-10-22T13:25:28.450Z,9.40
2022-10-22T13:28:01.410Z,9.20
2022-10-22T13:30:40.056Z,9.10
2022-10-22T13:33:39.198Z,9.20
2022-10-22T13:36:09.666Z,10.50
2022-10-22T13:38:37.769Z,10.90
2022-10-22T13:41:17.977Z,8.00
2022-10-22T13:43:45.998Z,10.30
2022-10-22T13:46:14.620Z,22.50
2022-10-22T13:48:44.225Z,10.80
2022-10-22T13:51:20.430Z,9.90
2022-10-22T13:53:50.475Z,7.00
2022-10-22T13:56:20.783Z,7.90
2022-10-22T13:58:49.052Z,10.20
2022-10-22T14:01:25.802Z,9.60
2022-10-22T14:03:58.245Z,12.30
2022-10-22T14:06:31.301Z,11.60
2022-10-22T14:09:02.927Z,11.60
2022-10-22T14:11:32.774Z,11.00
2022-10-22T14:14:08.927Z,10.60
2022-10-22T14:16:37.684Z,11.40
2022-10-22T14:19:10.515Z,12.00
2022-10-22T14:21:38.653Z,10.30
2022-10-22T14:24:09.444Z,10.60
2022-10-22T14:26:40.376Z,14.40
2022-10-22T14:29:09.834Z,11.70
2022-10-22T14:34:15.190Z,11.20
2022-10-22T14:36:44.075Z,8.80
2022-10-22T14:39:13.715Z,10.20
2022-10-22T14:41:42.632Z,8.40
2022-10-22T14:44:14.516Z,7.80
2022-10-22T14:46:44.507Z,9.70
2022-10-22T14:49:12.938Z,10.90
2022-10-22T14:51:42.080Z,12.40
2022-10-22T14:54:10.113Z,11.00
2022-10-22T14:56:38.378Z,15.60
2022-10-22T14:59:06.347Z,17.60
2022-10-22T15:01:34.416Z,15.20
2022-10-22T15:04:02.452Z,16.80
2022-10-22T15:06:30.537Z,13.40
2022-10-22T15:08:58.659Z,17.30
2022-10-22T15:11:27.015Z,15.50
2022-10-22T15:13:55.405Z,15.90
2022-10-22T15:16:23.349Z,13.40
2022-10-22T15:18:53.092Z,15.40
2022-10-22T15:21:23.162Z,16.00
2022-10-22T15:23:51.027Z,19.50
2022-10-22T15:26:19.307Z,17.70
2022-10-22T15:28:47.270Z,16.60
2022-10-22T15:31:15.759Z,21.00
2022-10-22T15:33:44.342Z,16.50
2022-10-22T15:36:16.415Z,19.10
2022-10-22T15:38:44.507Z,21.00
2022-10-22T15:41:13.568Z,22.10
2022-10-22T15:43:42.176Z,22.30
2022-10-22T15:46:18.923Z,19.70
2022-10-22T15:48:46.933Z,25.20
2022-10-22T15:51:17.837Z,24.10
2022-10-22T15:53:54.911Z,40.60
2022-10-22T15:56:24.118Z,32.80
2022-10-22T15:59:02.881Z,44.10
2022-10-22T16:01:32.450Z,52.40
2022-10-22T16:04:02.947Z,38.10
2022-10-22T16:06:38.272Z,30.40
2022-10-22T16:09:09.493Z,35.70
2022-10-22T16:11:38.257Z,37.00
2022-10-22T16:14:07.491Z,51.70
2022-10-22T16:16:39.513Z,39.20
2022-10-22T16:19:07.537Z,48.30
2022-10-22T16:21:35.467Z,46.30
2022-10-22T16:24:06.218Z,54.50
2022-10-22T16:26:35.771Z,47.60
2022-10-22T16:29:04.515Z,55.60
2022-10-22T16:31:32.696Z,63.20
2022-10-22T16:34:00.767Z,64.40
2022-10-22T16:36:28.789Z,57.10
2022-10-22T16:38:56.694Z,60.90
2022-10-22T16:41:26.016Z,47.30
2022-10-22T16:43:55.329Z,54.30
2022-10-22T16:46:23.432Z,52.50
2022-10-22T16:48:53.012Z,40.10
2022-10-22T16:51:24.073Z,33.30
2022-10-22T16:53:53.397Z,40.10
2022-10-22T16:56:22.248Z,39.90
2022-10-22T16:58:53.224Z,43.70
2022-10-22T17:01:22.835Z,30.10
2022-10-22T17:03:51.120Z,34.10
2022-10-22T17:06:19.354Z,37.70
2022-10-22T17:08:48.047Z,31.80
2022-10-22T17:11:19.448Z,33.30
2022-10-22T17:13:49.536Z,29.50
2022-10-22T17:16:19.904Z,37.20
2022-10-22T17:18:47.954Z,30.70
2022-10-22T17:21:16.785Z,30.00
2022-10-22T17:23:45.280Z,31.60
2022-10-22T17:26:17.574Z,29.70
2022-10-22T17:28:45.907Z,35.60
2022-10-22T17:31:37.542Z,27.60
2022-10-22T17:34:08.371Z,32.10
2022-10-22T17:36:37.036Z,35.00
2022-10-22T17:39:07.460Z,34.60
2022-10-22T17:41:37.536Z,47.10
2022-10-22T17:44:09.353Z,38.40
2022-10-22T17:46:40.302Z,27.50
2022-10-22T17:49:18.656Z,30.20
2022-10-22T17:51:49.298Z,38.20
2022-10-22T17:54:20.282Z,31.50
2022-10-22T17:56:48.418Z,42.40
2022-10-22T17:59:17.190Z,30.90
2022-10-22T18:01:46.938Z,28.20
2022-10-22T18:04:17.974Z,29.80
2022-10-22T18:06:47.736Z,23.70
2022-10-22T18:09:18.738Z,26.90
2022-10-22T18:11:49.223Z,37.20
2022-10-22T18:14:23.782Z,46.50
2022-10-22T18:16:52.624Z,37.10
2022-10-22T18:19:23.377Z,28.20
2022-10-22T18:21:51.793Z,25.00
2022-10-22T18:24:19.982Z,25.20
2022-10-22T18:26:50.415Z,39.50
2022-10-22T18:29:20.794Z,30.00
2022-10-22T18:31:49.253Z,30.90
2022-10-22T18:34:20.243Z,25.10
2022-10-22T18:36:51.715Z,35.70
2022-10-22T18:39:20.150Z,36.10
2022-10-22T18:41:48.419Z,22.90
2022-10-22T18:44:17.055Z,30.20
2022-10-22T18:46:45.295Z,27.80
2022-10-22T18:49:18.512Z,23.10
2022-10-22T18:51:52.604Z,18.80
2022-10-22T18:54:23.663Z,26.40
2022-10-22T18:56:57.981Z,110.40
2022-10-22T18:59:27.512Z,52.50
2022-10-22T19:01:59.547Z,32.80
2022-10-22T19:04:33.337Z,46.00
2022-10-22T19:07:01.620Z,34.90
2022-10-22T19:09:30.055Z,26.20
2022-10-22T19:11:58.169Z,28.10
2022-10-22T19:14:27.018Z,30.40
2022-10-22T19:16:55.433Z,26.00
2022-10-22T19:19:24.503Z,29.80
2022-10-22T19:21:52.697Z,35.30
2022-10-22T19:24:20.974Z,36.50
2022-10-22T19:26:50.284Z,25.70
2022-10-22T19:29:20.715Z,28.70
2022-10-22T19:31:51.857Z,29.00
2022-10-22T19:34:20.830Z,35.40
2022-10-22T19:36:51.930Z,28.20
2022-10-22T19:39:20.258Z,30.60
2022-10-22T19:41:48.537Z,33.80
2022-10-22T19:44:16.574Z,25.70
2022-10-22T19:46:44.848Z,23.20
2022-10-22T19:49:16.564Z,31.40
2022-10-22T19:51:47.172Z,31.10
2022-10-22T19:54:18.724Z,32.10
2022-10-22T19:56:48.817Z,27.60
2022-10-22T19:59:17.854Z,31.70
2022-10-22T20:01:46.400Z,37.40
2022-10-22T20:04:16.893Z,27.30
2022-10-22T20:06:45.513Z,30.70
2022-10-22T20:09:14.128Z,38.40
2022-10-22T20:11:42.356Z,23.40
2022-10-22T20:14:10.490Z,28.20
2022-10-22T20:16:39.354Z,33.20
2022-10-22T20:19:08.911Z,24.70
2022-10-22T20:21:37.540Z,20.50
2022-10-22T20:24:05.821Z,35.40
2022-10-22T20:26:34.666Z,38.30
2022-10-22T20:29:02.884Z,24.50
2022-10-22T20:31:33.011Z,26.50
2022-10-22T20:34:01.895Z,30.90
2022-10-22T20:36:31.803Z,26.60
2022-10-22T20:39:06.454Z,26.60
2022-10-22T20:41:38.043Z,24.30
2022-10-22T20:44:09.997Z,29.10
2022-10-22T20:46:38.241Z,30.80
2022-10-22T20:49:10.677Z,21.90
2022-10-22T20:51:39.270Z,22.90
2022-10-22T20:54:09.099Z,36.40
2022-10-22T20:56:39.390Z,23.30
2022-10-22T20:59:11.218Z,33.30
2022-10-22T21:01:42.622Z,21.80
2022-10-22T21:04:11.192Z,21.80
2022-10-22T21:06:41.440Z,23.60
2022-10-22T21:09:11.978Z,30.30
2022-10-22T21:11:41.706Z,33.70
2022-10-22T21:14:12.251Z,34.20
2022-10-22T21:16:45.511Z,28.10
2022-10-22T21:19:13.465Z,34.30
2022-10-22T21:21:41.422Z,26.40
2022-10-22T21:24:09.683Z,24.70
2022-10-22T21:26:39.209Z,22.50
2022-10-22T21:29:07.796Z,30.60
2022-10-22T21:31:35.962Z,23.80
2022-10-22T21:34:04.005Z,34.50
2022-10-22T21:36:31.977Z,21.20
2022-10-22T21:39:01.973Z,37.40
2022-10-22T21:41:30.109Z,36.30
2022-10-22T21:43:58.791Z,26.30
2022-10-22T21:46:28.180Z,18.60
2022-10-22T21:49:02.124Z,25.30
2022-10-22T21:51:33.057Z,26.00
2022-10-22T21:54:01.956Z,24.60
2022-10-22T21:56:33.199Z,27.70
2022-10-22T21:59:03.515Z,32.40
2022-10-22T22:01:32.379Z,24.90
2022-10-22T22:04:00.460Z,35.60
2022-10-22T22:06:33.379Z,38.00
2022-10-22T22:09:03.877Z,26.40
2022-10-22T22:11:32.609Z,29.70
2022-10-22T22:14:00.576Z,34.90
2022-10-22T22:16:31.791Z,24.50
2022-10-22T22:19:02.164Z,34.10
2022-10-22T22:21:30.973Z,23.20
2022-10-22T22:23:58.935Z,23.70
2022-10-22T22:26:30.074Z,34.80
2022-10-22T22:28:59.808Z,26.60
2022-10-22T22:31:30.386Z,29.10
2022-10-22T22:34:03.666Z,33.00
2022-10-22T22:36:37.925Z,34.70
2022-10-22T22:39:08.008Z,27.30
2022-10-22T22:41:35.986Z,24.40
2022-10-22T22:44:04.493Z,34.10
2022-10-22T22:46:32.679Z,31.60
2022-10-22T22:49:00.908Z,28.10
2022-10-22T22:51:28.905Z,24.30
2022-10-22T22:54:01.132Z,33.80
2022-10-22T22:56:31.673Z,32.90
2022-10-22T22:58:59.577Z,28.50
2022-10-22T23:01:32.992Z,19.60
2022-10-22T23:04:23.850Z,30.20
2022-10-22T23:06:52.271Z,19.40
2022-10-22T23:11:53.903Z,21.00
2022-10-22T23:14:21.979Z,27.10
2022-10-22T23:16:52.653Z,16.90
2022-10-22T23:19:22.840Z,25.20
2022-10-22T23:21:53.340Z,17.30
2022-10-22T23:24:27.046Z,17.60
2022-10-22T23:26:56.225Z,16.00
2022-10-22T23:29:29.551Z,17.00
2022-10-22T23:32:02.331Z,16.80
2022-10-22T23:34:32.090Z,25.50
2022-10-22T23:37:00.115Z,19.90
2022-10-22T23:39:28.868Z,25.50
2022-10-22T23:41:57.315Z,22.30
2022-10-22T23:44:25.988Z,20.50
2022-10-22T23:46:55.246Z,19.80
2022-10-22T23:49:23.170Z,23.20
2022-10-22T23:51:51.076Z,22.90
2022-10-22T23:54:19.209Z,22.00
2022-10-22T23:56:47.282Z,16.30
2022-10-22T23:59:16.115Z,22.00
